Terminal Aerodrome Forecast
Issued by NWS

Home | Current Version | Previous Version | Text Only | Print | Product List | Glossary On
Versions: 1 2 3 4 5 6 7 8 9 10 11 12 13 14 15 16 17 18
395
FTUS42 TJSJ 310543
TAFJBQ
TAF
TJBQ 310543Z 3106/0106 10005KT P6SM SCT025 SCT080
     FM311100 08008KT P6SM FEW020 SCT050
     FM311530 VRB08KT P6SM VCTS SCT020CB SCT060
     FM312300 12005KT P6SM FEW030 SCT070
      AMD NOT SKED TIL 311100=

USA.gov is the U.S. government's official web portal to all federal, state and local government web resources and services.